sensor_id;sensor_type;location;lat;lon;timestamp;P1;durP1;ratioP1;P2;durP2;ratioP2
23123;SDS011;11731;48.592;8.858;2023-04-01T00:01:45;1.37;;;0.90;;
23123;SDS011;11731;48.592;8.858;2023-04-01T00:04:12;4.20;;;0.80;;
23123;SDS011;11731;48.592;8.858;2023-04-01T00:09:19;5.60;;;1.27;;
23123;SDS011;11731;48.592;8.858;2023-04-01T00:13:37;2.87;;;0.90;;
23123;SDS011;11731;48.592;8.858;2023-04-01T00:16:04;1.77;;;0.87;;
23123;SDS011;11731;48.592;8.858;2023-04-01T00:18:33;1.47;;;0.77;;
23123;SDS011;11731;48.592;8.858;2023-04-01T00:21:03;1.60;;;0.57;;
23123;SDS011;11731;48.592;8.858;2023-04-01T00:23:30;1.67;;;0.90;;
23123;SDS011;11731;48.592;8.858;2023-04-01T00:25:58;1.37;;;0.63;;
23123;SDS011;11731;48.592;8.858;2023-04-01T00:38:12;0.50;;;0.40;;
23123;SDS011;11731;48.592;8.858;2023-04-01T00:41:18;2.93;;;0.80;;
23123;SDS011;11731;48.592;8.858;2023-04-01T00:50:23;2.63;;;0.80;;
23123;SDS011;11731;48.592;8.858;2023-04-01T00:52:55;2.37;;;0.70;;
23123;SDS011;11731;48.592;8.858;2023-04-01T00:55:50;1.93;;;0.87;;
23123;SDS011;11731;48.592;8.858;2023-04-01T00:58:35;1.40;;;0.80;;
23123;SDS011;11731;48.592;8.858;2023-04-01T01:01:38;3.07;;;0.60;;
23123;SDS011;11731;48.592;8.858;2023-04-01T01:04:05;1.67;;;0.63;;
23123;SDS011;11731;48.592;8.858;2023-04-01T01:06:37;0.50;;;0.33;;
23123;SDS011;11731;48.592;8.858;2023-04-01T01:09:19;2.73;;;0.50;;
23123;SDS011;11731;48.592;8.858;2023-04-01T01:32:59;2.43;;;0.60;;
23123;SDS011;11731;48.592;8.858;2023-04-01T01:35:47;1.33;;;0.60;;
23123;SDS011;11731;48.592;8.858;2023-04-01T01:38:21;2.50;;;0.40;;
23123;SDS011;11731;48.592;8.858;2023-04-01T01:45:26;0.97;;;0.57;;
23123;SDS011;11731;48.592;8.858;2023-04-01T01:48:01;1.30;;;0.30;;
23123;SDS011;11731;48.592;8.858;2023-04-01T01:50:41;0.40;;;0.30;;
23123;SDS011;11731;48.592;8.858;2023-04-01T01:56:18;0.20;;;0.20;;
23123;SDS011;11731;48.592;8.858;2023-04-01T01:59:19;1.00;;;0.90;;
23123;SDS011;11731;48.592;8.858;2023-04-01T02:02:05;1.30;;;0.50;;
23123;SDS011;11731;48.592;8.858;2023-04-01T02:07:16;0.40;;;0.30;;
23123;SDS011;11731;48.592;8.858;2023-04-01T02:08:49;1.23;;;0.23;;
23123;SDS011;11731;48.592;8.858;2023-04-01T02:17:45;0.40;;;0.27;;
23123;SDS011;11731;48.592;8.858;2023-04-01T02:20:28;1.17;;;0.27;;
23123;SDS011;11731;48.592;8.858;2023-04-01T02:22:56;0.40;;;0.40;;
23123;SDS011;11731;48.592;8.858;2023-04-01T02:28:45;2.20;;;0.70;;
23123;SDS011;11731;48.592;8.858;2023-04-01T02:31:33;2.43;;;0.40;;
23123;SDS011;11731;48.592;8.858;2023-04-01T02:40:22;1.20;;;0.20;;
23123;SDS011;11731;48.592;8.858;2023-04-01T02:42:50;0.30;;;0.30;;
23123;SDS011;11731;48.592;8.858;2023-04-01T02:48:05;0.90;;;0.43;;
23123;SDS011;11731;48.592;8.858;2023-04-01T03:00:49;0.27;;;0.20;;
23123;SDS011;11731;48.592;8.858;2023-04-01T03:02:51;2.20;;;0.77;;
23123;SDS011;11731;48.592;8.858;2023-04-01T03:05:18;0.47;;;0.40;;
23123;SDS011;11731;48.592;8.858;2023-04-01T03:08:23;1.00;;;0.43;;
23123;SDS011;11731;48.592;8.858;2023-04-01T03:13:46;0.40;;;0.30;;
23123;SDS011;11731;48.592;8.858;2023-04-01T03:25:58;0.80;;;0.50;;
23123;SDS011;11731;48.592;8.858;2023-04-01T03:28:42;0.67;;;0.33;;
23123;SDS011;11731;48.592;8.858;2023-04-01T03:31:22;0.20;;;0.20;;
23123;SDS011;11731;48.592;8.858;2023-04-01T03:33:50;1.47;;;0.60;;
23123;SDS011;11731;48.592;8.858;2023-04-01T03:36:23;0.33;;;0.33;;
23123;SDS011;11731;48.592;8.858;2023-04-01T03:50:37;1.03;;;0.30;;
23123;SDS011;11731;48.592;8.858;2023-04-01T03:53:04;1.20;;;0.40;;
23123;SDS011;11731;48.592;8.858;2023-04-01T03:55:48;0.70;;;0.30;;
23123;SDS011;11731;48.592;8.858;2023-04-01T04:01:21;1.30;;;0.57;;
23123;SDS011;11731;48.592;8.858;2023-04-01T04:03:51;1.13;;;0.30;;
23123;SDS011;11731;48.592;8.858;2023-04-01T04:17:32;2.40;;;0.40;;
23123;SDS011;11731;48.592;8.858;2023-04-01T04:19:53;2.30;;;0.40;;
23123;SDS011;11731;48.592;8.858;2023-04-01T04:28:05;0.60;;;0.40;;
23123;SDS011;11731;48.592;8.858;2023-04-01T04:30:45;0.60;;;0.50;;
23123;SDS011;11731;48.592;8.858;2023-04-01T04:33:41;1.03;;;0.73;;
23123;SDS011;11731;48.592;8.858;2023-04-01T04:36:08;2.40;;;0.70;;
23123;SDS011;11731;48.592;8.858;2023-04-01T04:38:35;2.53;;;0.60;;
23123;SDS011;11731;48.592;8.858;2023-04-01T04:42:11;1.93;;;0.87;;
23123;SDS011;11731;48.592;8.858;2023-04-01T04:44:30;0.80;;;0.57;;
23123;SDS011;11731;48.592;8.858;2023-04-01T04:56:33;1.57;;;0.80;;
23123;SDS011;11731;48.592;8.858;2023-04-01T04:59:01;1.63;;;0.70;;
23123;SDS011;11731;48.592;8.858;2023-04-01T05:01:28;1.57;;;0.87;;
23123;SDS011;11731;48.592;8.858;2023-04-01T05:03:58;1.60;;;0.70;;
23123;SDS011;11731;48.592;8.858;2023-04-01T05:19:07;0.50;;;0.50;;
23123;SDS011;11731;48.592;8.858;2023-04-01T05:22:04;2.93;;;0.70;;
23123;SDS011;11731;48.592;8.858;2023-04-01T05:24:32;0.80;;;0.70;;
23123;SDS011;11731;48.592;8.858;2023-04-01T05:26:59;1.17;;;0.60;;
23123;SDS011;11731;48.592;8.858;2023-04-01T05:29:36;0.47;;;0.47;;
23123;SDS011;11731;48.592;8.858;2023-04-01T05:41:47;1.13;;;0.57;;
23123;SDS011;11731;48.592;8.858;2023-04-01T05:44:14;2.40;;;0.90;;
23123;SDS011;11731;48.592;8.858;2023-04-01T05:49:23;1.53;;;0.50;;
23123;SDS011;11731;48.592;8.858;2023-04-01T05:51:50;1.97;;;0.60;;
23123;SDS011;11731;48.592;8.858;2023-04-01T05:54:29;1.80;;;1.37;;
23123;SDS011;11731;48.592;8.858;2023-04-01T05:57:02;1.30;;;0.70;;
23123;SDS011;11731;48.592;8.858;2023-04-01T06:01:39;0.80;;;0.30;;
23123;SDS011;11731;48.592;8.858;2023-04-01T06:02:58;1.33;;;0.67;;
23123;SDS011;11731;48.592;8.858;2023-04-01T06:05:27;0.93;;;0.70;;
23123;SDS011;11731;48.592;8.858;2023-04-01T06:07:58;0.60;;;0.37;;
23123;SDS011;11731;48.592;8.858;2023-04-01T06:10:35;3.00;;;1.17;;
23123;SDS011;11731;48.592;8.858;2023-04-01T06:16:30;1.47;;;0.50;;
23123;SDS011;11731;48.592;8.858;2023-04-01T06:22:57;1.20;;;0.50;;
23123;SDS011;11731;48.592;8.858;2023-04-01T06:25:49;0.80;;;0.30;;
23123;SDS011;11731;48.592;8.858;2023-04-01T06:41:23;2.27;;;0.40;;
23123;SDS011;11731;48.592;8.858;2023-04-01T06:48:35;0.60;;;0.47;;
23123;SDS011;11731;48.592;8.858;2023-04-01T06:50:58;1.50;;;0.60;;
23123;SDS011;11731;48.592;8.858;2023-04-01T06:53:34;4.43;;;0.77;;
23123;SDS011;11731;48.592;8.858;2023-04-01T06:56:05;2.00;;;0.80;;
23123;SDS011;11731;48.592;8.858;2023-04-01T06:58:37;1.23;;;0.57;;
23123;SDS011;11731;48.592;8.858;2023-04-01T07:01:09;1.33;;;0.50;;
23123;SDS011;11731;48.592;8.858;2023-04-01T07:04:46;2.03;;;0.70;;
23123;SDS011;11731;48.592;8.858;2023-04-01T07:07:10;2.57;;;0.70;;
23123;SDS011;11731;48.592;8.858;2023-04-01T07:13:00;0.83;;;0.53;;
23123;SDS011;11731;48.592;8.858;2023-04-01T07:15:33;1.03;;;0.40;;
23123;SDS011;11731;48.592;8.858;2023-04-01T07:18:05;1.73;;;0.50;;
23123;SDS011;11731;48.592;8.858;2023-04-01T07:20:36;1.80;;;0.53;;
23123;SDS011;11731;48.592;8.858;2023-04-01T07:23:10;0.97;;;0.40;;
23123;SDS011;11731;48.592;8.858;2023-04-01T07:28:50;2.80;;;0.40;;
23123;SDS011;11731;48.592;8.858;2023-04-01T07:34:30;2.57;;;0.70;;
23123;SDS011;11731;48.592;8.858;2023-04-01T07:37:06;3.30;;;0.60;;
23123;SDS011;11731;48.592;8.858;2023-04-01T07:42:50;0.70;;;0.57;;
23123;SDS011;11731;48.592;8.858;2023-04-01T07:46:36;1.37;;;0.70;;
23123;SDS011;11731;48.592;8.858;2023-04-01T07:48:29;2.00;;;0.43;;
23123;SDS011;11731;48.592;8.858;2023-04-01T07:51:01;1.37;;;0.50;;
23123;SDS011;11731;48.592;8.858;2023-04-01T07:53:34;0.47;;;0.43;;
23123;SDS011;11731;48.592;8.858;2023-04-01T07:56:05;1.97;;;0.50;;
23123;SDS011;11731;48.592;8.858;2023-04-01T07:58:41;1.40;;;0.70;;
23123;SDS011;11731;48.592;8.858;2023-04-01T08:01:59;1.20;;;0.90;;
23123;SDS011;11731;48.592;8.858;2023-04-01T08:04:55;1.27;;;0.60;;
23123;SDS011;11731;48.592;8.858;2023-04-01T08:07:36;2.07;;;1.20;;
23123;SDS011;11731;48.592;8.858;2023-04-01T08:10:11;2.17;;;0.70;;
23123;SDS011;11731;48.592;8.858;2023-04-01T08:15:37;1.33;;;0.70;;
23123;SDS011;11731;48.592;8.858;2023-04-01T08:18:31;1.03;;;0.60;;
23123;SDS011;11731;48.592;8.858;2023-04-01T08:21:08;1.67;;;0.80;;
23123;SDS011;11731;48.592;8.858;2023-04-01T08:23:40;1.27;;;0.57;;
23123;SDS011;11731;48.592;8.858;2023-04-01T08:28:21;0.90;;;0.73;;
23123;SDS011;11731;48.592;8.858;2023-04-01T08:29:23;0.73;;;0.60;;
23123;SDS011;11731;48.592;8.858;2023-04-01T08:35:28;0.97;;;0.70;;
23123;SDS011;11731;48.592;8.858;2023-04-01T08:41:18;1.17;;;0.70;;
23123;SDS011;11731;48.592;8.858;2023-04-01T08:44:08;1.40;;;0.53;;
23123;SDS011;11731;48.592;8.858;2023-04-01T08:50:41;1.43;;;0.70;;
23123;SDS011;11731;48.592;8.858;2023-04-01T08:53:35;0.43;;;0.43;;
23123;SDS011;11731;48.592;8.858;2023-04-01T08:56:13;1.23;;;0.57;;
23123;SDS011;11731;48.592;8.858;2023-04-01T09:01:57;1.07;;;0.40;;
23123;SDS011;11731;48.592;8.858;2023-04-01T09:05:11;2.33;;;0.50;;
23123;SDS011;11731;48.592;8.858;2023-04-01T09:08:10;0.53;;;0.40;;
23123;SDS011;11731;48.592;8.858;2023-04-01T09:10:59;0.43;;;0.30;;
23123;SDS011;11731;48.592;8.858;2023-04-01T09:16:25;0.87;;;0.37;;
23123;SDS011;11731;48.592;8.858;2023-04-01T09:19:07;0.53;;;0.40;;
23123;SDS011;11731;48.592;8.858;2023-04-01T09:24:46;0.50;;;0.50;;
23123;SDS011;11731;48.592;8.858;2023-04-01T09:27:52;0.50;;;0.50;;
23123;SDS011;11731;48.592;8.858;2023-04-01T09:30:34;0.30;;;0.30;;
23123;SDS011;11731;48.592;8.858;2023-04-01T09:36:43;1.00;;;0.33;;
23123;SDS011;11731;48.592;8.858;2023-04-01T09:39:17;1.03;;;0.30;;
23123;SDS011;11731;48.592;8.858;2023-04-01T09:42:06;0.93;;;0.40;;
23123;SDS011;11731;48.592;8.858;2023-04-01T09:44:57;0.30;;;0.30;;
23123;SDS011;11731;48.592;8.858;2023-04-01T09:47:51;0.20;;;0.20;;
23123;SDS011;11731;48.592;8.858;2023-04-01T09:50:34;1.17;;;0.50;;
23123;SDS011;11731;48.592;8.858;2023-04-01T09:53:28;0.57;;;0.30;;
23123;SDS011;11731;48.592;8.858;2023-04-01T09:56:41;0.20;;;0.20;;
23123;SDS011;11731;48.592;8.858;2023-04-01T10:10:02;0.27;;;0.27;;
23123;SDS011;11731;48.592;8.858;2023-04-01T10:13:05;0.50;;;0.50;;
23123;SDS011;11731;48.592;8.858;2023-04-01T10:16:13;0.10;;;0.10;;
23123;SDS011;11731;48.592;8.858;2023-04-01T10:18:56;0.27;;;0.27;;
23123;SDS011;11731;48.592;8.858;2023-04-01T10:22:39;0.23;;;0.23;;
23123;SDS011;11731;48.592;8.858;2023-04-01T10:28:12;0.30;;;0.13;;
23123;SDS011;11731;48.592;8.858;2023-04-01T10:37:05;0.40;;;0.30;;
23123;SDS011;11731;48.592;8.858;2023-04-01T10:39:56;0.23;;;0.23;;
23123;SDS011;11731;48.592;8.858;2023-04-01T10:46:17;0.30;;;0.30;;
23123;SDS011;11731;48.592;8.858;2023-04-01T10:55:25;0.27;;;0.27;;
23123;SDS011;11731;48.592;8.858;2023-04-01T10:58:22;1.70;;;0.40;;
23123;SDS011;11731;48.592;8.858;2023-04-01T11:01:20;0.20;;;0.20;;
23123;SDS011;11731;48.592;8.858;2023-04-01T11:07:25;0.87;;;0.30;;
23123;SDS011;11731;48.592;8.858;2023-04-01T11:10:22;0.87;;;0.17;;
23123;SDS011;11731;48.592;8.858;2023-04-01T11:16:29;0.20;;;0.20;;
23123;SDS011;11731;48.592;8.858;2023-04-01T11:19:24;0.10;;;0.10;;
23123;SDS011;11731;48.592;8.858;2023-04-01T11:22:17;0.30;;;0.30;;
23123;SDS011;11731;48.592;8.858;2023-04-01T11:28:44;0.77;;;0.40;;
23123;SDS011;11731;48.592;8.858;2023-04-01T11:34:24;0.63;;;0.40;;
23123;SDS011;11731;48.592;8.858;2023-04-01T11:40:38;0.30;;;0.30;;
23123;SDS011;11731;48.592;8.858;2023-04-01T11:53:31;0.30;;;0.30;;
23123;SDS011;11731;48.592;8.858;2023-04-01T11:56:13;1.03;;;0.40;;
23123;SDS011;11731;48.592;8.858;2023-04-01T11:59:06;0.23;;;0.23;;
23123;SDS011;11731;48.592;8.858;2023-04-01T12:02:16;0.40;;;0.40;;
23123;SDS011;11731;48.592;8.858;2023-04-01T12:04:58;0.30;;;0.30;;
23123;SDS011;11731;48.592;8.858;2023-04-01T12:07:47;0.53;;;0.33;;
23123;SDS011;11731;48.592;8.858;2023-04-01T12:10:24;1.50;;;0.40;;
23123;SDS011;11731;48.592;8.858;2023-04-01T12:13:02;0.33;;;0.33;;
23123;SDS011;11731;48.592;8.858;2023-04-01T12:15:38;0.20;;;0.20;;
23123;SDS011;11731;48.592;8.858;2023-04-01T12:18:21;0.27;;;0.20;;
23123;SDS011;11731;48.592;8.858;2023-04-01T12:23:52;0.27;;;0.20;;
23123;SDS011;11731;48.592;8.858;2023-04-01T12:26:49;0.20;;;0.20;;
23123;SDS011;11731;48.592;8.858;2023-04-01T12:29:49;0.10;;;0.10;;
23123;SDS011;11731;48.592;8.858;2023-04-01T12:33:04;0.20;;;0.20;;
23123;SDS011;11731;48.592;8.858;2023-04-01T12:35:53;0.30;;;0.30;;
23123;SDS011;11731;48.592;8.858;2023-04-01T12:38:43;0.30;;;0.30;;
23123;SDS011;11731;48.592;8.858;2023-04-01T12:41:24;0.30;;;0.30;;
23123;SDS011;11731;48.592;8.858;2023-04-01T12:44:09;0.30;;;0.30;;
23123;SDS011;11731;48.592;8.858;2023-04-01T12:47:19;0.30;;;0.30;;
23123;SDS011;11731;48.592;8.858;2023-04-01T12:50:34;0.20;;;0.20;;
23123;SDS011;11731;48.592;8.858;2023-04-01T12:53:53;0.37;;;0.13;;
23123;SDS011;11731;48.592;8.858;2023-04-01T12:56:44;0.63;;;0.10;;
23123;SDS011;11731;48.592;8.858;2023-04-01T12:59:28;0.37;;;0.10;;
23123;SDS011;11731;48.592;8.858;2023-04-01T13:02:12;0.10;;;0.10;;
23123;SDS011;11731;48.592;8.858;2023-04-01T13:07:56;0.00;;;0.00;;
23123;SDS011;11731;48.592;8.858;2023-04-01T13:10:42;0.00;;;0.00;;
23123;SDS011;11731;48.592;8.858;2023-04-01T13:13:34;0.50;;;0.30;;
23123;SDS011;11731;48.592;8.858;2023-04-01T13:16:18;0.20;;;0.20;;
23123;SDS011;11731;48.592;8.858;2023-04-01T13:18:54;0.20;;;0.20;;
23123;SDS011;11731;48.592;8.858;2023-04-01T13:21:31;0.30;;;0.30;;
23123;SDS011;11731;48.592;8.858;2023-04-01T13:24:06;0.40;;;0.30;;
23123;SDS011;11731;48.592;8.858;2023-04-01T13:26:45;0.20;;;0.20;;
23123;SDS011;11731;48.592;8.858;2023-04-01T13:29:20;0.17;;;0.17;;
23123;SDS011;11731;48.592;8.858;2023-04-01T13:31:59;0.20;;;0.20;;
23123;SDS011;11731;48.592;8.858;2023-04-01T13:34:48;0.20;;;0.20;;
23123;SDS011;11731;48.592;8.858;2023-04-01T13:37:30;0.30;;;0.30;;
23123;SDS011;11731;48.592;8.858;2023-04-01T13:40:14;0.40;;;0.40;;
23123;SDS011;11731;48.592;8.858;2023-04-01T13:43:07;0.73;;;0.37;;
23123;SDS011;11731;48.592;8.858;2023-04-01T13:45:42;0.27;;;0.27;;
23123;SDS011;11731;48.592;8.858;2023-04-01T13:51:27;0.27;;;0.27;;
23123;SDS011;11731;48.592;8.858;2023-04-01T13:54:09;0.20;;;0.20;;
23123;SDS011;11731;48.592;8.858;2023-04-01T13:57:07;0.43;;;0.30;;
23123;SDS011;11731;48.592;8.858;2023-04-01T13:59:55;0.20;;;0.20;;
23123;SDS011;11731;48.592;8.858;2023-04-01T14:02:41;0.10;;;0.10;;
23123;SDS011;11731;48.592;8.858;2023-04-01T14:05:28;0.33;;;0.33;;
23123;SDS011;11731;48.592;8.858;2023-04-01T14:08:09;0.20;;;0.17;;
23123;SDS011;11731;48.592;8.858;2023-04-01T14:10:50;0.10;;;0.10;;
23123;SDS011;11731;48.592;8.858;2023-04-01T14:13:23;0.23;;;0.20;;
23123;SDS011;11731;48.592;8.858;2023-04-01T14:16:11;0.47;;;0.10;;
23123;SDS011;11731;48.592;8.858;2023-04-01T14:19:02;0.20;;;0.20;;
23123;SDS011;11731;48.592;8.858;2023-04-01T14:21:40;0.30;;;0.30;;
23123;SDS011;11731;48.592;8.858;2023-04-01T14:24:17;0.20;;;0.20;;
23123;SDS011;11731;48.592;8.858;2023-04-01T14:27:00;0.73;;;0.23;;
23123;SDS011;11731;48.592;8.858;2023-04-01T14:29:56;0.90;;;0.30;;
23123;SDS011;11731;48.592;8.858;2023-04-01T14:32:34;0.50;;;0.30;;
23123;SDS011;11731;48.592;8.858;2023-04-01T14:35:14;0.40;;;0.30;;
23123;SDS011;11731;48.592;8.858;2023-04-01T14:37:58;0.30;;;0.30;;
23123;SDS011;11731;48.592;8.858;2023-04-01T14:40:55;0.30;;;0.30;;
23123;SDS011;11731;48.592;8.858;2023-04-01T14:43:28;0.40;;;0.40;;
23123;SDS011;11731;48.592;8.858;2023-04-01T14:46:30;0.70;;;0.40;;
23123;SDS011;11731;48.592;8.858;2023-04-01T14:49:16;1.20;;;0.20;;
23123;SDS011;11731;48.592;8.858;2023-04-01T14:51:48;0.53;;;0.30;;
23123;SDS011;11731;48.592;8.858;2023-04-01T14:54:19;0.60;;;0.20;;
23123;SDS011;11731;48.592;8.858;2023-04-01T14:57:01;0.30;;;0.30;;
23123;SDS011;11731;48.592;8.858;2023-04-01T14:59:39;0.60;;;0.50;;
23123;SDS011;11731;48.592;8.858;2023-04-01T15:02:09;0.40;;;0.40;;
23123;SDS011;11731;48.592;8.858;2023-04-01T15:04:57;0.40;;;0.40;;
23123;SDS011;11731;48.592;8.858;2023-04-01T15:10:34;0.90;;;0.70;;
23123;SDS011;11731;48.592;8.858;2023-04-01T15:13:39;1.47;;;0.90;;
23123;SDS011;11731;48.592;8.858;2023-04-01T15:16:25;2.03;;;1.33;;
23123;SDS011;11731;48.592;8.858;2023-04-01T15:19:01;1.20;;;0.80;;
23123;SDS011;11731;48.592;8.858;2023-04-01T15:21:41;3.73;;;1.83;;
23123;SDS011;11731;48.592;8.858;2023-04-01T15:24:26;2.20;;;1.63;;
23123;SDS011;11731;48.592;8.858;2023-04-01T15:27:10;0.77;;;0.70;;
23123;SDS011;11731;48.592;8.858;2023-04-01T15:29:46;2.30;;;1.60;;
23123;SDS011;11731;48.592;8.858;2023-04-01T15:32:27;1.20;;;1.00;;
23123;SDS011;11731;48.592;8.858;2023-04-01T15:35:09;0.90;;;0.50;;
23123;SDS011;11731;48.592;8.858;2023-04-01T15:37:48;0.83;;;0.43;;
23123;SDS011;11731;48.592;8.858;2023-04-01T15:40:22;0.57;;;0.40;;
23123;SDS011;11731;48.592;8.858;2023-04-01T15:43:02;1.30;;;0.67;;
23123;SDS011;11731;48.592;8.858;2023-04-01T15:45:41;0.73;;;0.60;;
23123;SDS011;11731;48.592;8.858;2023-04-01T15:48:25;0.60;;;0.53;;
23123;SDS011;11731;48.592;8.858;2023-04-01T15:54:06;2.80;;;0.67;;
23123;SDS011;11731;48.592;8.858;2023-04-01T15:56:52;1.20;;;0.40;;
23123;SDS011;11731;48.592;8.858;2023-04-01T15:59:39;0.60;;;0.37;;
23123;SDS011;11731;48.592;8.858;2023-04-01T16:02:21;0.83;;;0.50;;
23123;SDS011;11731;48.592;8.858;2023-04-01T16:04:58;1.23;;;0.47;;
23123;SDS011;11731;48.592;8.858;2023-04-01T16:07:48;0.70;;;0.70;;
23123;SDS011;11731;48.592;8.858;2023-04-01T16:10:35;0.70;;;0.70;;
23123;SDS011;11731;48.592;8.858;2023-04-01T16:13:22;0.77;;;0.77;;
23123;SDS011;11731;48.592;8.858;2023-04-01T16:15:59;0.83;;;0.60;;
23123;SDS011;11731;48.592;8.858;2023-04-01T16:18:44;3.63;;;0.50;;
23123;SDS011;11731;48.592;8.858;2023-04-01T16:21:35;1.57;;;0.73;;
23123;SDS011;11731;48.592;8.858;2023-04-01T16:24:15;1.40;;;0.50;;
23123;SDS011;11731;48.592;8.858;2023-04-01T16:26:50;1.07;;;0.63;;
23123;SDS011;11731;48.592;8.858;2023-04-01T16:29:24;0.60;;;0.53;;
23123;SDS011;11731;48.592;8.858;2023-04-01T16:31:58;0.67;;;0.50;;
23123;SDS011;11731;48.592;8.858;2023-04-01T16:34:36;0.93;;;0.67;;
23123;SDS011;11731;48.592;8.858;2023-04-01T16:37:09;1.37;;;0.70;;
23123;SDS011;11731;48.592;8.858;2023-04-01T16:39:43;1.63;;;0.80;;
23123;SDS011;11731;48.592;8.858;2023-04-01T16:42:16;1.57;;;0.77;;
23123;SDS011;11731;48.592;8.858;2023-04-01T16:44:53;1.00;;;0.60;;
23123;SDS011;11731;48.592;8.858;2023-04-01T16:47:26;1.63;;;0.63;;
23123;SDS011;11731;48.592;8.858;2023-04-01T16:49:56;1.57;;;0.50;;
23123;SDS011;11731;48.592;8.858;2023-04-01T16:52:30;1.23;;;0.70;;
23123;SDS011;11731;48.592;8.858;2023-04-01T16:55:03;1.90;;;0.50;;
23123;SDS011;11731;48.592;8.858;2023-04-01T16:57:43;1.13;;;0.60;;
23123;SDS011;11731;48.592;8.858;2023-04-01T17:00:16;1.23;;;0.50;;
23123;SDS011;11731;48.592;8.858;2023-04-01T17:02:54;1.07;;;0.60;;
23123;SDS011;11731;48.592;8.858;2023-04-01T17:08:48;1.50;;;0.67;;
23123;SDS011;11731;48.592;8.858;2023-04-01T17:11:27;1.07;;;0.73;;
23123;SDS011;11731;48.592;8.858;2023-04-01T17:14:04;0.60;;;0.60;;
23123;SDS011;11731;48.592;8.858;2023-04-01T17:19:48;0.50;;;0.50;;
23123;SDS011;11731;48.592;8.858;2023-04-01T17:22:27;0.63;;;0.63;;
23123;SDS011;11731;48.592;8.858;2023-04-01T17:25:14;1.40;;;1.10;;
23123;SDS011;11731;48.592;8.858;2023-04-01T17:28:09;1.47;;;1.10;;
23123;SDS011;11731;48.592;8.858;2023-04-01T17:30:44;1.23;;;0.87;;
23123;SDS011;11731;48.592;8.858;2023-04-01T17:39:20;1.03;;;0.70;;
23123;SDS011;11731;48.592;8.858;2023-04-01T17:43:57;0.63;;;0.57;;
23123;SDS011;11731;48.592;8.858;2023-04-01T17:45:37;0.80;;;0.80;;
23123;SDS011;11731;48.592;8.858;2023-04-01T17:48:16;1.13;;;0.90;;
23123;SDS011;11731;48.592;8.858;2023-04-01T17:51:38;1.07;;;0.97;;
23123;SDS011;11731;48.592;8.858;2023-04-01T17:54:17;1.33;;;0.80;;
23123;SDS011;11731;48.592;8.858;2023-04-01T17:56:55;1.10;;;0.70;;
23123;SDS011;11731;48.592;8.858;2023-04-01T17:59:35;0.97;;;0.70;;
23123;SDS011;11731;48.592;8.858;2023-04-01T18:02:11;1.07;;;0.57;;
23123;SDS011;11731;48.592;8.858;2023-04-01T18:04:53;1.40;;;0.90;;
23123;SDS011;11731;48.592;8.858;2023-04-01T18:07:54;1.83;;;0.80;;
23123;SDS011;11731;48.592;8.858;2023-04-01T18:10:37;4.87;;;1.20;;
23123;SDS011;11731;48.592;8.858;2023-04-01T18:16:26;1.10;;;0.70;;
23123;SDS011;11731;48.592;8.858;2023-04-01T18:19:09;1.57;;;0.80;;
23123;SDS011;11731;48.592;8.858;2023-04-01T18:21:47;1.00;;;0.90;;
23123;SDS011;11731;48.592;8.858;2023-04-01T18:24:19;1.33;;;0.80;;
23123;SDS011;11731;48.592;8.858;2023-04-01T18:30:06;0.90;;;0.80;;
23123;SDS011;11731;48.592;8.858;2023-04-01T18:32:47;2.23;;;1.53;;
23123;SDS011;11731;48.592;8.858;2023-04-01T18:35:46;0.80;;;0.60;;
23123;SDS011;11731;48.592;8.858;2023-04-01T18:38:20;0.40;;;0.40;;
23123;SDS011;11731;48.592;8.858;2023-04-01T18:41:02;0.93;;;0.50;;
23123;SDS011;11731;48.592;8.858;2023-04-01T18:43:43;0.30;;;0.30;;
23123;SDS011;11731;48.592;8.858;2023-04-01T18:46:55;0.40;;;0.30;;
23123;SDS011;11731;48.592;8.858;2023-04-01T19:45:29;1.10;;;1.10;;
23123;SDS011;11731;48.592;8.858;2023-04-01T19:48:04;2.00;;;1.20;;
23123;SDS011;11731;48.592;8.858;2023-04-01T19:50:45;1.10;;;1.00;;
23123;SDS011;11731;48.592;8.858;2023-04-01T19:53:18;2.13;;;1.30;;
23123;SDS011;11731;48.592;8.858;2023-04-01T19:55:56;2.60;;;1.10;;
23123;SDS011;11731;48.592;8.858;2023-04-01T19:58:30;1.43;;;1.17;;
23123;SDS011;11731;48.592;8.858;2023-04-01T20:01:03;1.27;;;0.93;;
23123;SDS011;11731;48.592;8.858;2023-04-01T20:03:34;1.40;;;1.23;;
23123;SDS011;11731;48.592;8.858;2023-04-01T20:06:10;1.50;;;1.40;;
23123;SDS011;11731;48.592;8.858;2023-04-01T20:08:45;1.10;;;1.00;;
23123;SDS011;11731;48.592;8.858;2023-04-01T20:11:22;1.53;;;1.20;;
23123;SDS011;11731;48.592;8.858;2023-04-01T20:14:00;3.73;;;1.20;;
23123;SDS011;11731;48.592;8.858;2023-04-01T20:19:41;1.30;;;1.10;;
23123;SDS011;11731;48.592;8.858;2023-04-01T20:22:28;1.60;;;1.27;;
23123;SDS011;11731;48.592;8.858;2023-04-01T20:25:11;1.40;;;1.30;;
23123;SDS011;11731;48.592;8.858;2023-04-01T20:27:43;2.13;;;1.40;;
23123;SDS011;11731;48.592;8.858;2023-04-01T20:33:08;2.13;;;1.53;;
23123;SDS011;11731;48.592;8.858;2023-04-01T20:35:50;9.93;;;1.50;;
23123;SDS011;11731;48.592;8.858;2023-04-01T20:38:41;6.47;;;3.27;;
23123;SDS011;11731;48.592;8.858;2023-04-01T20:41:32;5.13;;;3.30;;
23123;SDS011;11731;48.592;8.858;2023-04-01T20:44:08;5.00;;;3.40;;
23123;SDS011;11731;48.592;8.858;2023-04-01T20:46:45;4.63;;;1.80;;
23123;SDS011;11731;48.592;8.858;2023-04-01T20:49:24;1.60;;;1.50;;
23123;SDS011;11731;48.592;8.858;2023-04-01T20:52:01;2.90;;;1.30;;
23123;SDS011;11731;48.592;8.858;2023-04-01T20:54:40;1.33;;;1.10;;
23123;SDS011;11731;48.592;8.858;2023-04-01T20:57:16;1.10;;;1.00;;
23123;SDS011;11731;48.592;8.858;2023-04-01T21:02:52;1.10;;;0.63;;
23123;SDS011;11731;48.592;8.858;2023-04-01T21:05:48;1.37;;;0.97;;
23123;SDS011;11731;48.592;8.858;2023-04-01T21:08:33;1.73;;;0.70;;
23123;SDS011;11731;48.592;8.858;2023-04-01T21:11:16;0.63;;;0.60;;
23123;SDS011;11731;48.592;8.858;2023-04-01T21:14:24;0.60;;;0.60;;
23123;SDS011;11731;48.592;8.858;2023-04-01T21:17:07;0.70;;;0.70;;
23123;SDS011;11731;48.592;8.858;2023-04-01T21:19:45;2.50;;;0.67;;
23123;SDS011;11731;48.592;8.858;2023-04-01T21:22:31;2.30;;;0.63;;
23123;SDS011;11731;48.592;8.858;2023-04-01T21:28:05;0.77;;;0.70;;
23123;SDS011;11731;48.592;8.858;2023-04-01T21:31:27;0.63;;;0.63;;
23123;SDS011;11731;48.592;8.858;2023-04-01T21:34:32;0.77;;;0.70;;
23123;SDS011;11731;48.592;8.858;2023-04-01T21:43:23;0.63;;;0.63;;
23123;SDS011;11731;48.592;8.858;2023-04-01T21:46:09;1.57;;;0.60;;
23123;SDS011;11731;48.592;8.858;2023-04-01T21:48:57;0.87;;;0.70;;
23123;SDS011;11731;48.592;8.858;2023-04-01T21:51:44;0.67;;;0.67;;
23123;SDS011;11731;48.592;8.858;2023-04-01T22:00:34;0.70;;;0.70;;
23123;SDS011;11731;48.592;8.858;2023-04-01T22:03:13;0.50;;;0.50;;
23123;SDS011;11731;48.592;8.858;2023-04-01T22:06:06;0.60;;;0.60;;
23123;SDS011;11731;48.592;8.858;2023-04-01T22:08:50;0.83;;;0.50;;
23123;SDS011;11731;48.592;8.858;2023-04-01T22:11:29;1.67;;;0.60;;
23123;SDS011;11731;48.592;8.858;2023-04-01T22:14:03;0.67;;;0.63;;
23123;SDS011;11731;48.592;8.858;2023-04-01T22:16:39;0.60;;;0.60;;
23123;SDS011;11731;48.592;8.858;2023-04-01T22:19:12;0.83;;;0.80;;
23123;SDS011;11731;48.592;8.858;2023-04-01T22:21:48;0.50;;;0.50;;
23123;SDS011;11731;48.592;8.858;2023-04-01T22:24:26;1.50;;;0.80;;
23123;SDS011;11731;48.592;8.858;2023-04-01T22:27:03;1.10;;;0.90;;
23123;SDS011;11731;48.592;8.858;2023-04-01T22:29:35;2.73;;;0.83;;
23123;SDS011;11731;48.592;8.858;2023-04-01T22:32:10;2.17;;;0.60;;
23123;SDS011;11731;48.592;8.858;2023-04-01T22:34:42;1.03;;;0.80;;
23123;SDS011;11731;48.592;8.858;2023-04-01T22:37:17;0.50;;;0.50;;
23123;SDS011;11731;48.592;8.858;2023-04-01T22:40:01;1.17;;;0.70;;
23123;SDS011;11731;48.592;8.858;2023-04-01T22:42:44;0.70;;;0.60;;
23123;SDS011;11731;48.592;8.858;2023-04-01T22:48:30;0.57;;;0.57;;
23123;SDS011;11731;48.592;8.858;2023-04-01T22:51:04;1.10;;;0.67;;